Time;durP1;ratioP1;P1;durP2;ratioP2;P2;SDS_P1;SDS_P2;PMS_P1;PMS_P2;Temp;Humidity;BMP_temperature;BMP_pressure;BME280_temperature;BME280_humidity;BME280_pressure;Samples;Min_cycle;Max_cycle;Signal;HPM_P1;HPM_P2
2023/01/03 00:00:36;;;;;;;10.35;3.90;;;4.90;99.90;;;;;;5036333;28;20043;-71
2023/01/03 00:03:01;;;;;;;7.97;3.90;;;4.90;99.90;;;;;;5038821;28;20146;-70
2023/01/03 00:05:27;;;;;;;7.40;3.80;;;4.90;99.90;;;;;;5054958;28;20064;-71
2023/01/03 00:07:53;;;;;;;8.25;3.80;;;4.90;99.90;;;;;;5054962;28;20053;-70
2023/01/03 00:10:19;;;;;;;8.10;3.85;;;6.50;99.90;;;;;;5054598;28;20053;-70
2023/01/03 00:12:44;;;;;;;7.32;3.38;;;4.90;99.90;;;;;;5053741;28;20037;-71
2023/01/03 00:15:14;;;;;;;11.02;3.47;;;4.90;99.90;;;;;;5055803;28;20043;-71
2023/01/03 00:17:40;;;;;;;9.05;3.10;;;4.90;99.90;;;;;;5054677;28;20102;-71
2023/01/03 00:20:07;;;;;;;9.75;3.53;;;5.00;99.90;;;;;;5054397;28;20073;-70
2023/01/03 00:22:33;;;;;;;7.70;2.88;;;5.10;99.90;;;;;;5055015;28;20148;-71
2023/01/03 00:24:59;;;;;;;7.35;3.20;;;5.10;99.90;;;;;;5055732;28;20132;-71
2023/01/03 00:27:25;;;;;;;8.38;3.00;;;5.20;99.90;;;;;;5056309;28;20119;-71
2023/01/03 00:29:50;;;;;;;8.40;3.47;;;5.10;99.90;;;;;;5051956;28;20465;-71
2023/01/03 00:32:17;;;;;;;8.27;3.15;;;6.30;99.90;;;;;;5036279;28;20068;-71
2023/01/03 00:34:44;;;;;;;9.18;3.05;;;5.10;99.90;;;;;;5034821;28;20049;-71
2023/01/03 00:37:10;;;;;;;9.05;2.72;;;5.20;99.90;;;;;;5034866;28;20056;-71
2023/01/03 00:39:35;;;;;;;8.82;2.83;;;5.20;99.90;;;;;;5036076;28;20046;-70
2023/01/03 00:42:01;;;;;;;6.85;2.88;;;5.20;99.90;;;;;;5035960;28;20087;-70
2023/01/03 00:44:27;;;;;;;9.20;2.80;;;6.60;99.90;;;;;;5036021;28;20120;-71
2023/01/03 00:46:52;;;;;;;9.00;3.13;;;5.20;99.90;;;;;;5035834;28;20120;-70
2023/01/03 00:49:18;;;;;;;11.13;2.78;;;5.30;99.90;;;;;;5042526;28;20037;-70
2023/01/03 00:51:44;;;;;;;8.48;2.58;;;5.30;99.90;;;;;;5055344;28;20045;-70
2023/01/03 00:54:11;;;;;;;11.00;2.72;;;5.30;99.90;;;;;;5055633;28;20482;-70
2023/01/03 00:56:40;;;;;;;7.80;2.60;;;5.30;99.90;;;;;;5055046;28;20052;-70
2023/01/03 00:59:06;;;;;;;8.30;2.65;;;5.30;99.90;;;;;;5055374;28;20486;-70
2023/01/03 01:01:35;;;;;;;7.03;2.67;;;6.70;99.90;;;;;;5055100;28;20045;-70
2023/01/03 01:04:17;;;;;;;10.60;2.60;;;5.40;99.90;;;;;;5054059;28;20481;-71
2023/01/03 01:06:47;;;;;;;6.70;2.20;;;5.40;99.90;;;;;;5055402;28;20076;-70
2023/01/03 01:09:20;;;;;;;9.05;2.50;;;5.40;99.90;;;;;;5055250;28;20080;-70
2023/01/03 01:11:47;;;;;;;10.35;2.88;;;5.40;99.90;;;;;;5037762;28;20143;-71
2023/01/03 01:14:19;;;;;;;7.78;2.38;;;6.30;99.90;;;;;;5052938;28;20055;-70
2023/01/03 01:16:47;;;;;;;5.47;2.00;;;5.40;99.90;;;;;;5053211;28;20375;-71
2023/01/03 01:19:13;;;;;;;9.20;3.05;;;5.40;99.90;;;;;;5053376;28;20056;-71
2023/01/03 01:21:39;;;;;;;9.75;2.70;;;5.40;99.90;;;;;;5033805;28;20052;-71
2023/01/03 01:24:05;;;;;;;6.13;2.80;;;5.40;99.90;;;;;;5041056;28;20045;-71
2023/01/03 01:26:33;;;;;;;9.45;2.58;;;5.40;99.90;;;;;;5055106;28;20084;-70
2023/01/03 01:28:59;;;;;;;7.88;2.65;;;5.40;99.90;;;;;;5036951;28;20145;-71
2023/01/03 01:31:26;;;;;;;7.15;2.40;;;5.40;99.90;;;;;;5033819;28;20080;-71
2023/01/03 01:33:53;;;;;;;8.93;2.60;;;5.30;99.90;;;;;;5034121;28;20056;-71
2023/01/03 01:36:20;;;;;;;11.77;3.13;;;5.40;99.90;;;;;;5041114;28;20143;-71
2023/01/03 01:38:53;;;;;;;9.82;3.13;;;5.30;99.90;;;;;;5055046;28;20094;-70
2023/01/03 01:46:47;;;;;;;9.93;2.85;;;5.30;99.90;;;;;;5053507;28;20045;-70
2023/01/03 01:49:21;;;;;;;11.23;3.00;;;5.30;99.90;;;;;;5054728;28;20057;-71
2023/01/03 01:51:47;;;;;;;10.68;3.03;;;5.30;99.90;;;;;;5037087;28;20045;-71
2023/01/03 01:54:13;;;;;;;8.98;2.80;;;5.10;99.90;;;;;;5054563;28;20044;-70
2023/01/03 01:56:49;;;;;;;6.43;2.83;;;5.30;99.90;;;;;;5053004;28;20099;-70
2023/01/03 01:59:15;;;;;;;8.68;2.90;;;5.40;99.90;;;;;;5052860;28;20037;-70
2023/01/03 02:01:43;;;;;;;7.53;3.00;;;5.40;99.90;;;;;;5053968;28;20374;-71
2023/01/03 02:04:14;;;;;;;10.43;2.83;;;5.40;99.90;;;;;;5054306;28;20045;-71
2023/01/03 02:06:40;;;;;;;7.53;2.85;;;5.40;99.90;;;;;;5054270;28;20068;-71
2023/01/03 02:09:06;;;;;;;10.32;2.85;;;5.50;99.90;;;;;;5054319;28;20052;-70
2023/01/03 02:15:15;;;;;;;8.93;3.40;;;5.40;99.90;;;;;;5053766;28;20052;-71
2023/01/03 02:17:52;;;;;;;7.50;3.00;;;5.40;99.90;;;;;;5047288;28;20128;-70
2023/01/03 02:20:33;;;;;;;8.68;3.03;;;5.40;99.90;;;;;;5047477;28;20045;-70
2023/01/03 02:23:10;;;;;;;6.47;3.20;;;5.40;99.90;;;;;;5050683;28;20489;-70
2023/01/03 02:25:51;;;;;;;8.70;3.05;;;5.40;99.90;;;;;;5050794;28;20493;-70
2023/01/03 02:28:25;;;;;;;11.32;4.00;;;5.30;99.90;;;;;;5053510;28;20076;-70
2023/01/03 02:31:03;;;;;;;8.57;3.60;;;5.30;99.90;;;;;;5053503;28;20207;-71
2023/01/03 02:33:52;;;;;;;8.32;3.58;;;5.40;99.90;;;;;;5042264;28;20099;-70
2023/01/03 02:36:30;;;;;;;8.63;3.28;;;5.30;99.90;;;;;;5017517;28;20076;-70
2023/01/03 02:39:23;;;;;;;5.97;3.35;;;5.30;99.90;;;;;;5051951;28;20052;-70
2023/01/03 02:45:40;;;;;;;10.57;3.17;;;5.10;99.90;;;;;;5053939;28;20048;-70
2023/01/03 02:48:25;;;;;;;7.10;3.45;;;5.10;99.90;;;;;;5039574;28;20067;-70
2023/01/03 02:50:56;;;;;;;9.75;3.70;;;5.10;99.90;;;;;;5033445;28;20407;-70
2023/01/03 02:53:37;;;;;;;10.75;3.97;;;5.00;99.90;;;;;;5048893;28;20071;-71
2023/01/03 02:56:11;;;;;;;9.98;4.20;;;4.90;99.90;;;;;;5033540;28;20466;-71
2023/01/03 02:58:39;;;;;;;8.85;3.40;;;4.90;99.90;;;;;;5033889;28;20430;-70
2023/01/03 03:01:07;;;;;;;9.52;3.60;;;4.80;99.90;;;;;;5033226;28;20115;-70
2023/01/03 03:03:36;;;;;;;7.68;3.70;;;4.80;99.90;;;;;;5033646;28;20112;-70
2023/01/03 03:06:33;;;;;;;10.50;3.85;;;4.80;99.90;;;;;;5049534;28;20124;-71
2023/01/03 03:08:59;;;;;;;9.30;3.78;;;4.70;99.90;;;;;;5050864;28;20474;-70
2023/01/03 03:14:42;;;;;;;8.48;3.28;;;4.50;99.90;;;;;;5014322;28;20537;-70
2023/01/03 03:17:14;;;;;;;12.20;3.85;;;4.60;99.90;;;;;;5049523;28;20064;-70
2023/01/03 03:25:47;;;;;;;10.30;3.72;;;4.50;99.90;;;;;;5051369;28;20131;-70
2023/01/03 03:28:34;;;;;;;7.90;3.58;;;4.40;99.90;;;;;;5050734;28;20136;-70
2023/01/03 03:31:11;;;;;;;9.52;3.83;;;5.70;99.90;;;;;;5052474;28;20094;-70
2023/01/03 03:33:55;;;;;;;9.50;4.25;;;4.30;99.90;;;;;;5052605;28;20071;-70
2023/01/03 03:36:35;;;;;;;8.40;3.85;;;4.30;99.90;;;;;;5051288;28;20045;-70
2023/01/03 03:39:02;;;;;;;9.40;3.80;;;5.60;99.90;;;;;;5051990;28;20045;-70
2023/01/03 03:47:37;;;;;;;10.40;3.78;;;5.20;99.90;;;;;;5051081;28;20029;-70
2023/01/03 03:50:29;;;;;;;10.25;4.10;;;4.10;99.90;;;;;;5052516;28;20110;-70
2023/01/03 03:53:03;;;;;;;8.40;3.88;;;5.20;99.90;;;;;;5052614;28;20048;-70
2023/01/03 03:55:41;;;;;;;11.95;4.07;;;4.00;99.90;;;;;;5034188;28;20060;-70
2023/01/03 03:58:13;;;;;;;9.43;4.07;;;4.00;99.90;;;;;;5036074;28;20041;-70
2023/01/03 04:00:40;;;;;;;11.23;3.97;;;4.10;99.90;;;;;;5050650;28;20485;-70
2023/01/03 04:03:08;;;;;;;7.57;3.47;;;3.90;99.90;;;;;;5049202;28;20053;-70
2023/01/03 04:05:38;;;;;;;10.65;4.13;;;3.80;99.90;;;;;;5049155;28;20164;-70
2023/01/03 04:08:04;;;;;;;9.02;4.45;;;3.70;99.90;;;;;;5048612;28;20142;-70
2023/01/03 04:10:30;;;;;;;7.05;3.90;;;3.70;99.90;;;;;;5032056;28;20517;-70
2023/01/03 04:12:58;;;;;;;9.18;4.00;;;3.70;99.90;;;;;;5049936;28;20037;-70
2023/01/03 04:15:24;;;;;;;14.98;4.50;;;5.30;99.90;;;;;;5051110;28;20060;-70
2023/01/03 04:17:49;;;;;;;9.30;4.20;;;3.70;99.90;;;;;;5034271;28;20052;-70
2023/01/03 04:20:15;;;;;;;8.43;3.83;;;4.80;99.90;;;;;;5051207;28;20041;-70
2023/01/03 04:22:41;;;;;;;10.40;4.57;;;3.70;99.90;;;;;;5052325;28;20049;-70
2023/01/03 04:25:07;;;;;;;13.07;4.63;;;3.70;99.90;;;;;;5051959;28;20098;-70
2023/01/03 04:27:33;;;;;;;9.52;4.55;;;3.60;99.90;;;;;;5052707;28;20076;-70
2023/01/03 04:29:59;;;;;;;9.88;4.93;;;3.60;99.90;;;;;;5052486;28;20489;-70
2023/01/03 04:32:24;;;;;;;11.13;5.28;;;3.60;99.90;;;;;;5051112;28;20041;-70
2023/01/03 04:34:50;;;;;;;11.50;5.85;;;3.70;99.90;;;;;;5046340;28;20402;-70
2023/01/03 04:37:15;;;;;;;10.63;5.22;;;3.70;99.90;;;;;;5031673;28;20042;-71
2023/01/03 04:39:41;;;;;;;8.63;5.70;;;3.70;99.90;;;;;;5044022;28;20072;-70
2023/01/03 04:44:51;;;;;;;12.38;7.10;;;3.80;99.90;;;;;;5051199;28;20394;-71
2023/01/03 04:47:17;;;;;;;12.70;6.72;;;3.80;99.90;;;;;;5053256;28;20049;-71
2023/01/03 04:49:46;;;;;;;15.35;7.65;;;3.80;99.90;;;;;;5054416;28;20132;-70
2023/01/03 04:52:15;;;;;;;13.85;8.10;;;3.90;99.90;;;;;;5055667;28;20046;-70
2023/01/03 04:54:42;;;;;;;12.52;7.45;;;3.90;99.90;;;;;;5055238;28;20033;-71
2023/01/03 04:57:09;;;;;;;16.88;7.93;;;3.90;99.90;;;;;;5055947;28;20041;-70
2023/01/03 04:59:35;;;;;;;16.00;7.90;;;3.90;99.90;;;;;;5055874;28;20041;-70
2023/01/03 05:02:01;;;;;;;15.48;8.55;;;4.00;99.90;;;;;;5054311;28;20049;-71
2023/01/03 05:04:27;;;;;;;18.10;8.65;;;5.00;99.90;;;;;;5055837;28;20118;-70
2023/01/03 05:06:54;;;;;;;19.50;9.32;;;4.00;99.90;;;;;;5055259;28;20060;-70
2023/01/03 05:09:19;;;;;;;17.40;9.25;;;4.10;99.90;;;;;;5055280;28;20076;-70
2023/01/03 05:11:45;;;;;;;15.00;10.15;;;4.10;99.90;;;;;;5055391;28;20153;-70
2023/01/03 05:14:11;;;;;;;19.63;9.90;;;4.10;99.90;;;;;;5055597;28;20033;-70
2023/01/03 05:16:36;;;;;;;17.60;10.43;;;4.10;99.90;;;;;;5055419;28;20425;-70
2023/01/03 05:19:02;;;;;;;18.20;10.05;;;4.20;99.90;;;;;;5055157;28;20505;-70
2023/01/03 05:26:59;;;;;;;18.40;10.73;;;4.10;99.90;;;;;;5053895;28;20041;-71
2023/01/03 05:29:27;;;;;;;18.60;10.82;;;4.10;99.90;;;;;;5054566;28;20045;-71
2023/01/03 05:31:53;;;;;;;16.65;10.68;;;4.20;99.90;;;;;;5053204;28;20072;-71
2023/01/03 05:34:18;;;;;;;17.60;11.07;;;4.20;99.90;;;;;;5053825;28;20083;-71
2023/01/03 05:36:44;;;;;;;17.58;11.10;;;4.20;99.90;;;;;;5055165;28;20142;-70
2023/01/03 05:39:10;;;;;;;19.20;10.70;;;4.20;99.90;;;;;;5054876;28;20049;-71
2023/01/03 05:44:20;;;;;;;15.25;9.68;;;4.20;99.90;;;;;;5043629;28;20096;-70
2023/01/03 05:46:46;;;;;;;18.00;10.85;;;4.60;99.90;;;;;;5033591;28;20458;-70
2023/01/03 05:49:11;;;;;;;16.13;9.73;;;5.10;99.90;;;;;;5034802;28;20064;-70
2023/01/03 05:51:37;;;;;;;17.17;10.05;;;4.20;99.90;;;;;;5037168;28;20055;-71
2023/01/03 05:54:03;;;;;;;16.92;10.85;;;4.20;99.90;;;;;;5053483;28;20476;-70
2023/01/03 05:56:33;;;;;;;16.60;9.50;;;4.10;99.90;;;;;;5054837;28;20463;-71
2023/01/03 05:58:59;;;;;;;17.20;10.23;;;5.00;99.90;;;;;;5052063;28;20461;-71
2023/01/03 06:01:27;;;;;;;20.63;10.60;;;4.20;99.90;;;;;;5053187;28;20053;-70
2023/01/03 06:03:52;;;;;;;17.30;10.43;;;4.10;99.90;;;;;;5053374;28;20041;-71
2023/01/03 06:06:18;;;;;;;19.02;10.98;;;4.10;99.90;;;;;;5052518;28;20456;-71
2023/01/03 06:08:43;;;;;;;22.48;11.80;;;4.10;99.90;;;;;;5054485;28;20045;-71
2023/01/03 06:11:13;;;;;;;16.63;10.43;;;4.10;99.90;;;;;;5052962;28;20041;-71
2023/01/03 06:13:40;;;;;;;20.92;10.68;;;4.80;99.90;;;;;;5054130;28;20049;-70
2023/01/03 06:18:53;;;;;;;19.80;11.73;;;4.40;99.90;;;;;;5038831;28;20129;-71
2023/01/03 06:21:19;;;;;;;16.10;10.75;;;4.10;99.90;;;;;;5038182;28;20128;-70
2023/01/03 06:23:46;;;;;;;20.13;11.25;;;4.20;99.90;;;;;;5053002;28;20477;-70
2023/01/03 06:26:13;;;;;;;16.92;11.27;;;4.20;99.90;;;;;;5054115;28;20087;-70
2023/01/03 06:28:39;;;;;;;22.00;11.93;;;4.20;99.90;;;;;;5053974;28;20087;-70
2023/01/03 06:31:05;;;;;;;21.15;11.90;;;4.10;99.90;;;;;;5036011;28;20501;-70
2023/01/03 06:33:31;;;;;;;22.95;12.90;;;4.10;99.90;;;;;;5052798;28;20136;-70
2023/01/03 06:36:01;;;;;;;21.77;12.98;;;4.30;99.90;;;;;;5053238;28;20051;-70
2023/01/03 06:38:27;;;;;;;23.27;13.18;;;5.00;99.90;;;;;;5053340;28;20455;-70
2023/01/03 06:40:53;;;;;;;23.80;13.45;;;4.10;99.90;;;;;;5053817;28;20049;-70
2023/01/03 06:43:18;;;;;;;22.52;13.30;;;4.10;99.90;;;;;;5051842;28;20452;-70
2023/01/03 06:54:02;;;;;;;23.88;15.05;;;4.10;99.90;;;;;;5053127;28;20045;-71
2023/01/03 06:56:28;;;;;;;22.98;13.82;;;4.00;99.90;;;;;;5053252;28;20048;-70
2023/01/03 06:58:53;;;;;;;27.70;15.27;;;4.00;99.90;;;;;;5053576;28;20058;-70
2023/01/03 07:01:21;;;;;;;28.05;14.23;;;3.90;99.90;;;;;;5051910;28;20045;-70
2023/01/03 07:03:47;;;;;;;22.90;14.35;;;3.90;99.90;;;;;;5052034;28;20052;-71
2023/01/03 07:06:12;;;;;;;27.05;15.38;;;5.20;99.90;;;;;;5052681;28;20095;-71
2023/01/03 07:08:38;;;;;;;29.63;15.35;;;3.80;99.90;;;;;;5053266;28;20041;-71
2023/01/03 07:11:04;;;;;;;27.02;15.20;;;3.80;99.90;;;;;;5052393;28;20049;-71
2023/01/03 07:16:15;;;;;;;26.42;15.88;;;3.80;99.90;;;;;;5051879;28;20045;-70
2023/01/03 07:18:41;;;;;;;30.67;16.15;;;4.30;99.90;;;;;;5031909;28;20045;-70
2023/01/03 07:21:07;;;;;;;29.10;16.17;;;4.90;99.90;;;;;;5034001;28;20059;-70
2023/01/03 07:23:33;;;;;;;28.67;16.63;;;3.70;99.90;;;;;;5034968;28;20048;-71
2023/01/03 07:25:58;;;;;;;26.77;16.38;;;5.00;99.90;;;;;;5051522;28;20160;-70
2023/01/03 07:28:24;;;;;;;30.55;16.73;;;3.60;99.90;;;;;;5052976;28;20496;-70
2023/01/03 07:30:50;;;;;;;27.67;16.70;;;3.60;99.90;;;;;;5052655;28;20049;-71
2023/01/03 07:33:17;;;;;;;27.58;16.23;;;4.10;99.90;;;;;;5051841;28;20044;-71
2023/01/03 07:35:43;;;;;;;26.30;16.30;;;3.70;99.90;;;;;;5052279;28;20051;-71
2023/01/03 07:38:10;;;;;;;29.30;16.15;;;3.60;99.90;;;;;;5052716;28;20048;-71
2023/01/03 07:40:36;;;;;;;30.60;17.33;;;5.10;99.90;;;;;;5051342;28;20124;-71
2023/01/03 07:45:46;;;;;;;26.02;16.77;;;3.60;99.90;;;;;;5031546;28;20049;-71
2023/01/03 07:48:13;;;;;;;31.70;16.73;;;3.60;99.90;;;;;;5032722;28;20491;-71
2023/01/03 07:50:39;;;;;;;28.02;16.15;;;3.60;99.90;;;;;;5032312;28;20500;-71
2023/01/03 07:53:06;;;;;;;29.08;16.65;;;4.80;99.90;;;;;;5031206;28;20045;-71
2023/01/03 07:55:33;;;;;;;26.23;15.52;;;3.60;99.90;;;;;;5038487;28;20470;-71
2023/01/03 07:57:59;;;;;;;31.98;16.23;;;4.20;99.90;;;;;;5047371;28;20041;-71
2023/01/03 08:00:25;;;;;;;25.23;15.25;;;5.00;99.90;;;;;;5052601;28;20540;-71
2023/01/03 08:02:54;;;;;;;24.35;14.18;;;4.70;99.90;;;;;;5034630;28;20060;-71
2023/01/03 08:05:21;;;;;;;25.13;14.70;;;4.20;99.90;;;;;;5032588;28;20106;-71
2023/01/03 08:07:48;;;;;;;24.52;13.95;;;3.50;99.90;;;;;;5030950;28;20053;-71
2023/01/03 08:13:19;;;;;;;26.75;14.60;;;3.50;99.90;;;;;;5030750;28;20053;-71
2023/01/03 08:15:49;;;;;;;24.42;13.48;;;3.50;99.90;;;;;;5048329;28;20067;-71
2023/01/03 08:18:25;;;;;;;22.60;14.98;;;3.50;99.90;;;;;;5042320;28;20120;-71
2023/01/03 08:20:54;;;;;;;23.02;13.63;;;3.60;99.90;;;;;;5051800;28;20111;-70
2023/01/03 08:23:23;;;;;;;22.98;14.45;;;4.20;99.90;;;;;;5044082;28;20052;-71
2023/01/03 08:25:49;;;;;;;22.73;13.60;;;3.60;99.90;;;;;;5054870;28;20444;-71
2023/01/03 08:28:15;;;;;;;23.67;13.32;;;3.60;99.90;;;;;;5040177;28;20029;-70
2023/01/03 08:30:44;;;;;;;22.02;13.35;;;4.30;99.90;;;;;;5035548;28;20107;-71
2023/01/03 08:33:12;;;;;;;23.13;13.32;;;3.70;99.90;;;;;;5036256;28;20045;-71
2023/01/03 08:35:41;;;;;;;21.33;13.32;;;4.30;99.90;;;;;;5035456;28;20045;-71
2023/01/03 08:38:13;;;;;;;20.63;12.50;;;3.70;99.90;;;;;;5034733;28;20390;-71
2023/01/03 08:40:40;;;;;;;23.33;14.02;;;3.70;99.90;;;;;;5053464;28;20487;-71
2023/01/03 08:43:06;;;;;;;22.30;14.82;;;4.30;99.90;;;;;;5055784;28;20037;-71
2023/01/03 08:45:32;;;;;;;23.83;14.93;;;3.70;99.90;;;;;;5040127;28;20041;-71
2023/01/03 08:48:01;;;;;;;23.27;15.10;;;3.70;99.90;;;;;;5035746;28;20048;-72
2023/01/03 08:50:29;;;;;;;23.30;15.13;;;3.70;99.90;;;;;;5035709;28;20421;-72
2023/01/03 08:52:55;;;;;;;23.17;14.32;;;5.00;99.90;;;;;;5034281;28;20553;-72
2023/01/03 08:55:21;;;;;;;21.25;13.48;;;5.20;99.90;;;;;;5035617;28;20049;-72
2023/01/03 08:57:47;;;;;;;23.45;13.85;;;3.90;99.90;;;;;;5050702;28;20458;-72
2023/01/03 09:00:13;;;;;;;22.85;13.85;;;4.60;99.90;;;;;;5055229;28;20130;-72
2023/01/03 09:02:39;;;;;;;19.52;13.25;;;3.90;99.90;;;;;;5054308;28;20095;-72
2023/01/03 09:05:05;;;;;;;20.42;13.80;;;4.00;99.90;;;;;;5052910;28;20041;-73
2023/01/03 09:07:31;;;;;;;23.33;14.63;;;4.10;99.90;;;;;;5055413;28;20417;-72
2023/01/03 09:09:57;;;;;;;21.17;13.77;;;4.10;99.90;;;;;;5053541;28;20045;-72
2023/01/03 09:12:22;;;;;;;21.15;14.15;;;4.70;99.90;;;;;;5052710;28;20056;-72
2023/01/03 09:14:48;;;;;;;22.00;14.07;;;4.20;99.90;;;;;;5053470;28;20041;-71
2023/01/03 09:17:14;;;;;;;21.08;13.48;;;4.30;99.90;;;;;;5054161;28;20049;-72
2023/01/03 09:19:39;;;;;;;21.50;14.20;;;4.50;99.90;;;;;;5044177;28;20128;-72
2023/01/03 09:22:08;;;;;;;20.30;14.15;;;4.50;99.90;;;;;;5053852;28;20073;-72
2023/01/03 09:24:33;;;;;;;22.13;14.15;;;4.60;99.90;;;;;;5053346;28;20087;-72
2023/01/03 09:26:59;;;;;;;19.00;13.55;;;4.70;99.90;;;;;;5052993;28;20183;-73
2023/01/03 09:29:25;;;;;;;22.08;13.27;;;;;;;;;;5055021;28;20033;-72
2023/01/03 09:31:51;;;;;;;18.10;12.70;;;;;;;;;;5054240;28;20105;-72
2023/01/03 09:34:17;;;;;;;22.42;13.02;;;;;;;;;;5054680;28;20072;-72
2023/01/03 09:36:43;;;;;;;17.80;12.20;;;;;;;;;;5053456;28;20072;-72
2023/01/03 09:39:09;;;;;;;16.80;11.00;;;;;;;;;;5054080;28;20088;-71
2023/01/03 09:41:38;;;;;;;16.63;11.70;;;6.00;99.90;;;;;;5052527;28;20051;-70
2023/01/03 09:44:06;;;;;;;18.25;12.77;;;6.80;99.90;;;;;;5054612;28;20045;-71
2023/01/03 09:46:36;;;;;;;20.92;13.35;;;6.30;99.90;;;;;;5054315;28;20164;-72
2023/01/03 09:49:04;;;;;;;17.48;11.38;;;5.80;99.90;;;;;;5054461;28;20145;-72
2023/01/03 10:03:42;;;;;;;19.23;12.50;;;4.10;99.90;;;;;;5052664;28;20056;-72
2023/01/03 10:06:22;;;;;;;21.98;11.27;;;3.90;99.90;;;;;;5053447;28;20092;-71
2023/01/03 10:09:19;;;;;;;19.55;11.75;;;3.80;99.90;;;;;;5052254;28;20056;-71
2023/01/03 10:11:48;;;;;;;;;;;3.70;99.90;;;;;;5052819;28;20049;-72
2023/01/03 10:14:27;;;;;;;33.35;13.32;;;3.70;99.90;;;;;;5053885;28;19921;-73
2023/01/03 10:17:26;;;;;;;20.38;12.40;;;3.60;99.90;;;;;;5037347;28;20041;-73
2023/01/03 10:20:26;;;;;;;23.98;13.13;;;3.50;99.90;;;;;;5051914;28;20049;-72
2023/01/03 10:22:54;;;;;;;31.95;13.27;;;3.50;99.90;;;;;;5024670;28;20056;-72
2023/01/03 10:25:22;;;;;;;21.33;14.73;;;3.50;99.90;;;;;;5051788;28;20147;-72
2023/01/03 10:27:56;;;;;;;27.25;14.52;;;3.50;99.90;;;;;;5053466;28;20037;-72
2023/01/03 10:30:37;;;;;;;22.60;14.50;;;3.40;99.90;;;;;;5052205;28;20520;-72
2023/01/03 10:33:29;;;;;;;28.90;15.93;;;3.40;99.90;;;;;;5052462;28;20049;-72
2023/01/03 10:35:56;;;;;;;42.67;16.55;;;3.40;99.90;;;;;;5050296;28;20037;-72
2023/01/03 10:38:22;;;;;;;27.95;15.82;;;3.40;99.90;;;;;;5053385;28;20044;-72
2023/01/03 10:40:59;;;;;;;43.08;15.88;;;3.40;99.90;;;;;;5053046;28;20064;-72
2023/01/03 10:43:42;;;;;;;40.17;16.92;;;3.40;99.90;;;;;;5053640;28;20485;-72
2023/01/03 10:46:15;;;;;;;37.85;17.38;;;4.00;99.90;;;;;;5053277;28;20059;-72
2023/01/03 10:48:46;;;;;;;27.00;17.00;;;3.50;99.90;;;;;;5051712;28;20444;-71
2023/01/03 10:51:26;;;;;;;37.83;18.48;;;3.50;99.90;;;;;;5052417;28;20037;-72
2023/01/03 10:53:54;;;;;;;53.08;19.20;;;3.50;99.90;;;;;;5035125;28;20493;-73
2023/01/03 10:56:22;;;;;;;36.53;18.88;;;3.50;99.90;;;;;;5052914;28;20116;-72
2023/01/03 10:59:08;;;;;;;39.00;19.67;;;3.70;99.90;;;;;;5051933;28;20060;-72
2023/01/03 11:01:34;;;;;;;36.17;19.98;;;3.60;99.90;;;;;;5052861;28;20095;-72
2023/01/03 11:04:09;;;;;;;37.13;20.23;;;3.70;99.90;;;;;;5053240;28;20493;-73
2023/01/03 11:06:34;;;;;;;39.73;21.97;;;3.70;99.90;;;;;;5050798;28;20057;-73
2023/01/03 11:09:09;;;;;;;51.80;22.05;;;3.70;99.90;;;;;;5050518;28;20095;-72
2023/01/03 11:11:40;;;;;;;40.28;21.58;;;3.90;99.90;;;;;;5052288;28;20045;-72
2023/01/03 11:14:08;;;;;;;42.85;22.30;;;5.20;99.90;;;;;;5051715;28;20080;-73
2023/01/03 11:16:34;;;;;;;40.97;22.30;;;3.90;99.90;;;;;;5052107;28;20450;-73
2023/01/03 11:19:02;;;;;;;45.10;23.45;;;4.80;99.90;;;;;;5036349;28;20083;-72
2023/01/03 11:21:46;;;;;;;42.72;23.88;;;4.00;99.90;;;;;;5031014;28;20053;-72
2023/01/03 11:24:30;;;;;;;42.70;23.55;;;4.20;99.90;;;;;;5032792;28;20041;-72
2023/01/03 11:27:27;;;;;;;44.55;24.52;;;4.40;99.90;;;;;;5032605;28;20124;-73
2023/01/03 11:30:11;;;;;;;;;;;4.60;99.90;;;;;;5032141;28;20045;-72
2023/01/03 11:33:00;;;;;;;38.17;21.90;;;5.00;99.90;;;;;;5031334;28;19921;-72
2023/01/03 11:35:44;;;;;;;43.40;24.92;;;5.40;99.90;;;;;;5031509;28;20045;-72
2023/01/03 11:38:25;;;;;;;43.28;23.73;;;5.50;99.90;;;;;;5031400;28;20045;-73
2023/01/03 11:40:50;;;;;;;42.45;25.35;;;5.60;99.90;;;;;;5031246;28;20141;-73
2023/01/03 11:43:40;;;;;;;42.80;24.75;;;5.60;99.90;;;;;;5032595;28;20542;-72
2023/01/03 11:46:15;;;;;;;45.15;25.30;;;5.70;99.90;;;;;;5031270;28;20045;-72
2023/01/03 11:49:17;;;;;;;42.55;24.38;;;5.70;99.90;;;;;;5032928;28;20049;-72
2023/01/03 11:52:10;;;;;;;44.88;25.25;;;5.70;99.90;;;;;;5032342;28;20053;-72
2023/01/03 11:54:42;;;;;;;41.90;24.45;;;5.70;99.90;;;;;;5031376;28;20473;-72
2023/01/03 11:57:23;;;;;;;47.17;25.50;;;6.00;99.90;;;;;;5029304;28;20053;-73
2023/01/03 12:00:15;;;;;;;47.13;25.45;;;5.70;99.90;;;;;;5031297;28;20050;-72
2023/01/03 12:03:01;;;;;;;45.35;25.67;;;5.70;99.90;;;;;;5012927;28;20056;-73
2023/01/03 12:05:52;;;;;;;53.17;27.75;;;5.60;99.90;;;;;;5030957;28;20044;-74
2023/01/03 12:08:24;;;;;;;50.17;26.98;;;5.60;99.90;;;;;;5031172;28;20049;-73
2023/01/03 12:11:25;;;;;;;49.53;26.90;;;5.70;99.90;;;;;;5032147;28;20065;-74
2023/01/03 12:13:53;;;;;;;47.58;25.98;;;5.70;99.90;;;;;;5031159;28;20077;-72
2023/01/03 12:17:20;;;;;;;52.35;26.95;;;5.80;99.90;;;;;;5031170;28;20049;-72
2023/01/03 12:19:56;;;;;;;53.03;27.95;;;5.80;99.90;;;;;;4967659;28;20058;-74
2023/01/03 12:22:33;;;;;;;50.70;27.85;;;5.80;99.90;;;;;;4990606;28;20049;-74
2023/01/03 12:25:21;;;;;;;57.08;27.83;;;5.80;99.90;;;;;;5022469;28;20050;-74
2023/01/03 12:28:04;;;;;;;50.75;28.30;;;5.90;99.90;;;;;;5031303;28;20597;-74
2023/01/03 12:30:31;;;;;;;50.03;27.20;;;5.90;99.90;;;;;;5030681;28;20068;-74
2023/01/03 12:33:18;;;;;;;55.65;29.52;;;6.00;99.90;;;;;;5029770;28;20052;-74
2023/01/03 12:35:46;;;;;;;53.85;26.45;;;6.30;99.90;;;;;;5032380;28;20051;-75
2023/01/03 12:38:12;;;;;;;53.42;27.20;;;6.00;99.90;;;;;;5030752;28;20053;-75
2023/01/03 12:40:45;;;;;;;46.03;24.52;;;6.60;99.90;;;;;;5029927;28;20038;-74
2023/01/03 12:43:23;;;;;;;46.85;23.88;;;7.10;99.90;;;;;;5032281;28;20129;-75
2023/01/03 12:45:51;;;;;;;52.95;27.98;;;6.20;99.90;;;;;;5032176;28;20116;-74
2023/01/03 12:48:51;;;;;;;49.42;26.88;;;7.40;99.90;;;;;;5030281;28;20037;-75
2023/01/03 12:51:21;;;;;;;51.42;26.48;;;;;;;;;;5030541;28;20045;-75
2023/01/03 12:54:22;;;;;;;50.63;27.48;;;;;;;;;;5030708;28;20054;-74
2023/01/03 12:56:49;;;;;;;50.47;25.20;;;;;;;;;;4972658;28;20428;-74
2023/01/03 12:59:24;;;;;;;46.97;24.52;;;;;;;;;;5018722;28;20135;-74
2023/01/03 13:01:57;;;;;;;44.50;23.55;;;;;;;;;;5030339;28;20056;-74
2023/01/03 13:04:32;;;;;;;44.53;23.65;;;;;;;;;;5030175;28;20049;-74
2023/01/03 13:07:15;;;;;;;44.25;23.13;;;;;;;;;;5030435;28;20060;-74
2023/01/03 13:09:44;;;;;;;40.40;22.73;;;;;;;;;;5033675;28;20132;-74
2023/01/03 13:12:15;;;;;;;43.63;22.17;;;;;;;;;;5035621;28;20406;-74
2023/01/03 13:15:04;;;;;;;36.60;20.88;;;;;;;;;;5035269;28;20398;-74
2023/01/03 13:17:31;;;;;;;39.60;21.20;;;;;;;;;;5033821;28;20049;-74
2023/01/03 13:19:59;;;;;;;40.80;21.13;;;;;;;;;;5035239;28;20041;-74
2023/01/03 13:22:43;;;;;;;38.28;20.95;;;;;;;;;;5034044;28;20552;-74
2023/01/03 13:25:28;;;;;;;39.83;20.05;;;;;;;;;;5035372;28;20100;-74
2023/01/03 13:27:56;;;;;;;32.25;18.63;;;;;;;;;;5035094;28;20505;-74
2023/01/03 13:30:23;;;;;;;35.92;20.45;;;;;;;;;;5032910;28;20046;-74
2023/01/03 13:32:51;;;;;;;35.67;20.20;;;;;;;;;;5033455;28;20041;-74
2023/01/03 13:35:34;;;;;;;31.77;18.35;;;;;;;;;;5035036;28;20490;-74
2023/01/03 13:38:17;;;;;;;32.47;18.77;;;;;;;;;;5017307;28;20045;-74
2023/01/03 13:40:47;;;;;;;29.15;17.20;;;;;;;;;;5034874;28;20050;-74
2023/01/03 13:43:15;;;;;;;29.85;16.75;;;;;;;;;;5033681;28;20054;-74
2023/01/03 13:45:41;;;;;;;28.13;16.65;;;;;;;;;;5034828;28;20054;-74
2023/01/03 13:48:16;;;;;;;26.50;15.25;;;;;;;;;;5034856;28;20478;-74
2023/01/03 13:51:01;;;;;;;31.73;16.75;;;;;;;;;;5033234;28;20049;-74
2023/01/03 13:53:29;;;;;;;30.02;16.67;;;;;;;;;;5034675;28;20135;-74
2023/01/03 13:55:59;;;;;;;30.83;16.50;;;;;;;;;;5034644;28;20051;-74
2023/01/03 13:58:30;;;;;;;32.03;17.67;;;;;;;;;;5034658;28;20390;-74
2023/01/03 14:00:58;;;;;;;28.42;16.23;;;;;;;;;;5033047;28;20079;-74
2023/01/03 14:03:33;;;;;;;27.80;16.83;;;;;;;;;;5034581;28;20494;-74
2023/01/03 14:06:14;;;;;;;30.73;16.02;;;;;;;;;;5034354;28;20042;-75
2023/01/03 14:08:40;;;;;;;26.92;16.48;;;;;;;;;;5016716;28;20053;-74
2023/01/03 14:11:32;;;;;;;29.40;16.45;;;;;;;;;;5034356;28;20053;-74
2023/01/03 14:14:00;;;;;;;26.20;16.02;;;;;;;;;;5033369;28;20148;-74
2023/01/03 14:16:45;;;;;;;30.33;17.25;;;;;;;;;;5034487;28;20045;-74
2023/01/03 14:19:11;;;;;;;28.17;16.25;;;;;;;;;;5031904;28;20132;-74
2023/01/03 14:21:42;;;;;;;28.65;16.05;;;;;;;;;;5033447;28;20116;-74
2023/01/03 14:24:15;;;;;;;28.83;16.25;;;;;;;;;;5032753;28;20054;-74
2023/01/03 14:26:41;;;;;;;27.67;16.52;;;;;;;;;;5032642;28;20049;-74